createdAt,value
2019-05-29T00:00:45.997Z,101122.50
2019-05-29T00:03:15.490Z,101131.12
2019-05-29T00:05:45.431Z,101137.48
2019-05-29T00:08:14.955Z,101138.70
2019-05-29T00:10:44.538Z,101141.33
2019-05-29T00:13:15.205Z,101144.34
2019-05-29T00:15:44.765Z,101146.88
2019-05-29T00:18:14.616Z,101146.75
2019-05-29T00:20:44.254Z,101145.89
2019-05-29T00:23:14.687Z,101148.84
2019-05-29T00:25:44.270Z,101151.31
2019-05-29T00:28:14.873Z,101154.67
2019-05-29T00:30:45.644Z,101156.77
2019-05-29T00:33:15.395Z,101155.03
2019-05-29T00:35:45.139Z,101157.88
2019-05-29T00:38:14.828Z,101164.25
2019-05-29T00:40:44.330Z,101175.14
2019-05-29T00:43:13.853Z,101178.53
2019-05-29T00:45:43.342Z,101180.27
2019-05-29T00:48:13.984Z,101184.42
2019-05-29T00:50:43.789Z,101187.40
2019-05-29T00:53:14.292Z,101191.03
2019-05-29T00:55:43.852Z,101184.52
2019-05-29T00:58:13.392Z,101193.25
2019-05-29T01:00:42.995Z,101192.56
2019-05-29T01:03:13.630Z,101197.48
2019-05-29T01:05:43.293Z,101192.48
2019-05-29T01:08:12.769Z,101200.03
2019-05-29T01:10:42.346Z,101202.06
2019-05-29T01:13:13.053Z,101206.63
2019-05-29T01:15:43.737Z,101208.53
2019-05-29T01:18:13.914Z,101204.64
2019-05-29T01:20:43.417Z,101212.66
2019-05-29T01:23:14.130Z,101217.30
2019-05-29T01:25:43.783Z,101217.17
2019-05-29T01:28:13.276Z,101223.98
2019-05-29T01:30:42.775Z,101226.87
2019-05-29T01:33:16.931Z,101225.17
2019-05-29T01:35:43.500Z,101227.24
2019-05-29T01:38:13.002Z,101229.34
2019-05-29T01:40:42.876Z,101232.65
2019-05-29T01:43:12.378Z,101238.91
2019-05-29T01:45:41.940Z,101234.11
2019-05-29T01:48:11.449Z,101234.84
2019-05-29T01:50:40.948Z,101241.16
2019-05-29T01:53:10.437Z,101238.19
2019-05-29T01:55:39.939Z,101241.89
2019-05-29T01:58:09.443Z,101247.41
2019-05-29T02:00:38.976Z,101240.00
2019-05-29T02:03:08.524Z,101241.28
2019-05-29T02:05:38.041Z,101245.98
2019-05-29T02:08:07.607Z,101247.94
2019-05-29T02:10:37.140Z,101254.55
2019-05-29T02:13:06.634Z,101252.39
2019-05-29T02:15:36.220Z,101257.52
2019-05-29T02:18:06.315Z,101265.18
2019-05-29T02:20:35.846Z,101264.16
2019-05-29T02:23:05.454Z,101269.47
2019-05-29T02:25:34.966Z,101281.00
2019-05-29T02:28:04.489Z,101284.36
2019-05-29T02:30:34.010Z,101286.88
2019-05-29T02:33:03.571Z,101291.79
2019-05-29T02:35:33.097Z,101291.31
2019-05-29T02:38:02.611Z,101292.59
2019-05-29T02:40:32.126Z,101296.32
2019-05-29T02:43:01.617Z,101295.15
2019-05-29T02:45:52.078Z,101301.02
2019-05-29T02:48:02.576Z,101307.48
2019-05-29T02:50:32.081Z,101281.53
2019-05-29T02:53:01.586Z,101311.50
2019-05-29T02:55:31.133Z,101305.45
2019-05-29T02:58:00.800Z,101308.37
2019-05-29T03:00:52.548Z,101304.91
2019-05-29T03:03:27.461Z,101307.03
2019-05-29T03:05:57.137Z,101310.91
2019-05-29T03:08:28.915Z,101314.14
2019-05-29T03:10:57.848Z,101315.41
2019-05-29T03:13:27.818Z,101322.33
2019-05-29T03:16:10.839Z,101329.08
2019-05-29T03:18:30.407Z,101328.67
2019-05-29T03:21:01.876Z,101332.45
2019-05-29T03:23:33.233Z,101334.02
2019-05-29T03:26:02.591Z,101334.02
2019-05-29T03:28:32.942Z,101341.67
2019-05-29T03:31:03.297Z,101344.80
2019-05-29T03:33:41.058Z,101339.59
2019-05-29T03:36:04.363Z,101346.80
2019-05-29T03:38:34.942Z,101341.20
2019-05-29T03:41:04.779Z,101355.21
2019-05-29T03:43:35.941Z,101361.88
2019-05-29T03:46:05.519Z,101371.92
2019-05-29T03:48:35.031Z,101374.53
2019-05-29T03:51:04.545Z,101377.55
2019-05-29T03:53:36.147Z,101375.30
2019-05-29T03:56:05.268Z,101381.05
2019-05-29T03:58:35.296Z,101384.42
2019-05-29T04:01:06.387Z,101392.89
2019-05-29T04:03:37.699Z,101385.27
2019-05-29T04:06:07.234Z,101388.28
2019-05-29T04:08:38.519Z,101394.05
2019-05-29T04:11:08.346Z,101392.59
2019-05-29T04:13:38.775Z,101396.09
2019-05-29T04:16:10.466Z,101398.75
2019-05-29T04:18:41.083Z,101404.86
2019-05-29T04:21:11.349Z,101408.53
2019-05-29T04:23:40.928Z,101406.42
2019-05-29T04:26:12.825Z,101417.98
2019-05-29T04:28:42.864Z,101422.28
2019-05-29T04:31:12.393Z,101424.22
2019-05-29T04:33:41.926Z,101425.62
2019-05-29T04:36:11.439Z,101353.30
2019-05-29T04:38:40.943Z,101426.89
2019-05-29T04:41:10.447Z,101434.70
2019-05-29T04:43:40.099Z,101423.63
2019-05-29T04:46:09.610Z,101427.77
2019-05-29T04:48:40.460Z,101429.83
2019-05-29T04:51:10.227Z,101428.42
2019-05-29T04:53:40.100Z,101427.54
2019-05-29T04:56:09.654Z,101447.06
2019-05-29T04:58:39.251Z,101446.78
2019-05-29T05:01:09.770Z,101450.53
2019-05-29T05:03:39.517Z,101453.30
2019-05-29T05:06:09.063Z,101455.03
2019-05-29T05:08:39.775Z,101457.65
2019-05-29T05:11:11.769Z,101455.86
2019-05-29T05:13:41.307Z,101447.34
2019-05-29T05:16:10.895Z,101459.97
2019-05-29T05:18:40.418Z,101466.92
2019-05-29T05:21:09.929Z,101467.95
2019-05-29T05:23:40.558Z,101473.58
2019-05-29T05:26:10.444Z,101477.58
2019-05-29T05:28:44.030Z,101476.14
2019-05-29T05:31:11.210Z,101476.66
2019-05-29T05:33:41.094Z,101484.11
2019-05-29T05:36:10.697Z,101490.36
2019-05-29T05:38:41.051Z,101489.21
2019-05-29T05:41:11.078Z,101490.55
2019-05-29T05:43:41.402Z,101487.80
2019-05-29T05:46:13.018Z,101490.98
2019-05-29T05:48:42.552Z,101489.59
2019-05-29T05:51:12.051Z,101506.16
2019-05-29T05:53:42.415Z,101509.32
2019-05-29T05:56:12.012Z,101510.34
2019-05-29T05:58:42.282Z,101509.77
2019-05-29T06:01:12.196Z,101518.50
2019-05-29T06:03:42.465Z,101523.94
2019-05-29T06:06:13.193Z,101526.77
2019-05-29T06:08:42.784Z,101528.78
2019-05-29T06:11:12.377Z,101523.08
2019-05-29T06:13:42.753Z,101524.77
2019-05-29T06:16:13.429Z,101525.34
2019-05-29T06:18:43.268Z,101527.77
2019-05-29T06:21:14.249Z,101533.58
2019-05-29T06:23:43.909Z,101529.41
2019-05-29T06:26:13.922Z,101533.31
2019-05-29T06:28:43.795Z,101532.10
2019-05-29T06:31:13.292Z,101537.98
2019-05-29T06:33:43.949Z,101535.89
2019-05-29T06:36:13.694Z,101538.42
2019-05-29T06:38:44.299Z,101552.91
2019-05-29T06:41:14.111Z,101546.11
2019-05-29T06:43:44.321Z,101551.11
2019-05-29T06:46:14.121Z,101558.91
2019-05-29T06:48:59.040Z,101564.24
2019-05-29T06:51:15.800Z,101565.21
2019-05-29T06:53:45.338Z,101562.28
2019-05-29T06:56:15.911Z,101565.30
2019-05-29T06:58:46.634Z,101570.28
2019-05-29T07:01:16.128Z,101564.24
2019-05-29T07:03:45.641Z,101568.67
2019-05-29T07:06:15.171Z,101572.81
2019-05-29T07:08:48.045Z,101579.60
2019-05-29T07:11:15.836Z,101577.17
2019-05-29T07:13:48.490Z,101578.11
2019-05-29T07:16:16.567Z,101573.47
2019-05-29T07:19:22.983Z,101575.27
2019-05-29T07:21:18.364Z,101577.77
2019-05-29T07:23:48.746Z,101577.27
2019-05-29T07:26:19.602Z,101572.92
2019-05-29T07:29:07.647Z,101579.33
2019-05-29T07:31:20.413Z,101586.36
2019-05-29T07:33:49.922Z,101586.48
2019-05-29T07:36:19.425Z,101595.48
2019-05-29T07:38:57.743Z,101604.87
2019-05-29T07:41:20.161Z,101599.28
2019-05-29T07:43:49.676Z,101604.55
2019-05-29T07:46:19.193Z,101598.77
2019-05-29T07:48:50.295Z,101604.11
2019-05-29T07:51:20.218Z,101604.25
2019-05-29T07:53:49.740Z,101602.91
2019-05-29T07:56:23.069Z,101603.93
2019-05-29T07:59:01.789Z,101614.29
2019-05-29T08:01:22.717Z,101619.84
2019-05-29T08:03:52.425Z,101619.30
2019-05-29T08:06:22.059Z,101618.83
2019-05-29T08:08:51.629Z,101628.27
2019-05-29T08:11:22.080Z,101616.23
2019-05-29T08:13:51.626Z,101623.26
2019-05-29T08:16:21.188Z,101625.92
2019-05-29T08:18:53.030Z,101620.27
2019-05-29T08:21:21.846Z,101620.31
2019-05-29T08:23:51.365Z,101633.71
2019-05-29T08:26:20.916Z,101634.80
2019-05-29T08:28:51.159Z,101634.03
2019-05-29T08:31:20.796Z,101633.41
2019-05-29T08:33:51.247Z,101634.32
2019-05-29T08:36:20.877Z,101636.23
2019-05-29T08:38:51.909Z,101641.50
2019-05-29T08:41:21.560Z,101644.64
2019-05-29T08:43:51.097Z,101640.98
2019-05-29T08:46:20.591Z,101632.69
2019-05-29T08:48:50.246Z,101636.70
2019-05-29T08:51:19.735Z,101636.40
2019-05-29T08:53:51.963Z,101635.19
2019-05-29T08:56:20.520Z,101639.97
2019-05-29T08:58:50.653Z,101579.66
2019-05-29T09:01:20.312Z,101640.16
2019-05-29T09:03:51.274Z,101645.89
2019-05-29T09:06:21.929Z,101645.58
2019-05-29T09:08:52.859Z,101649.52
2019-05-29T09:11:22.797Z,101644.00
2019-05-29T09:13:52.341Z,101647.98
2019-05-29T09:16:22.971Z,101645.39
2019-05-29T09:18:52.536Z,101653.00
2019-05-29T09:21:22.882Z,101656.84
2019-05-29T09:23:53.314Z,101658.13
2019-05-29T09:26:25.552Z,101656.35
2019-05-29T09:28:54.048Z,101659.45
2019-05-29T09:31:23.941Z,101659.19
2019-05-29T09:33:53.401Z,101658.81
2019-05-29T09:36:22.986Z,101657.89
2019-05-29T09:38:53.128Z,101663.48
2019-05-29T09:41:23.587Z,101659.64
2019-05-29T09:43:59.007Z,101660.48
2019-05-29T09:46:25.788Z,101661.33
2019-05-29T09:48:55.332Z,101667.36
2019-05-29T09:51:24.839Z,101667.70
2019-05-29T09:53:55.919Z,101668.13
2019-05-29T09:56:25.578Z,101668.17
2019-05-29T09:58:56.376Z,101665.65
2019-05-29T10:01:26.553Z,101664.77
2019-05-29T10:03:58.841Z,101666.89
2019-05-29T10:06:27.267Z,101666.42
2019-05-29T10:08:57.976Z,101671.71
2019-05-29T10:11:27.603Z,101668.70
2019-05-29T10:13:58.600Z,101675.72
2019-05-29T10:16:28.313Z,101676.25
2019-05-29T10:18:59.763Z,101675.38
2019-05-29T10:21:40.030Z,101677.49
2019-05-29T10:24:02.194Z,101671.92
2019-05-29T10:26:32.159Z,101682.62
2019-05-29T10:29:08.249Z,101672.38
2019-05-29T10:31:32.907Z,101675.83
2019-05-29T10:34:02.438Z,101678.21
2019-05-29T10:36:31.986Z,101674.78
2019-05-29T10:39:01.796Z,101679.91
2019-05-29T10:41:32.531Z,101666.72
2019-05-29T10:44:02.054Z,101676.20
2019-05-29T10:46:31.567Z,101671.17
2019-05-29T10:49:04.609Z,101672.61
2019-05-29T10:51:33.434Z,101676.92
2019-05-29T10:54:03.027Z,101676.92
2019-05-29T10:56:32.559Z,101676.06
2019-05-29T10:59:02.081Z,101676.05
2019-05-29T11:01:31.608Z,101679.55
2019-05-29T11:04:01.125Z,101679.98
2019-05-29T11:06:30.632Z,101676.06
2019-05-29T11:09:00.147Z,101680.39
2019-05-29T11:11:29.697Z,101682.10
2019-05-29T11:13:59.265Z,101680.41
2019-05-29T11:16:28.768Z,101631.11
2019-05-29T11:18:58.356Z,101680.38
2019-05-29T11:21:27.909Z,101679.08
2019-05-29T11:23:58.438Z,101675.21
2019-05-29T11:26:27.977Z,101679.08
2019-05-29T11:28:58.823Z,101671.33
2019-05-29T11:31:29.359Z,101674.77
2019-05-29T11:33:59.294Z,101679.52
2019-05-29T11:36:28.930Z,101678.66
2019-05-29T11:39:03.174Z,101678.22
2019-05-29T11:41:29.721Z,101678.22
2019-05-29T11:43:59.235Z,101675.20
2019-05-29T11:46:28.790Z,101670.48
2019-05-29T11:48:59.378Z,101671.74
2019-05-29T11:51:28.986Z,101674.81
2019-05-29T11:53:59.580Z,101672.20
2019-05-29T11:56:29.194Z,101672.61
2019-05-29T11:58:59.018Z,101670.81
2019-05-29T12:01:28.569Z,101662.10
2019-05-29T12:04:18.150Z,101663.80
2019-05-29T12:06:29.348Z,101667.58
2019-05-29T12:08:59.872Z,101661.76
2019-05-29T12:11:29.396Z,101662.79
2019-05-29T12:14:00.563Z,101665.75
2019-05-29T12:16:30.143Z,101660.89
2019-05-29T12:18:59.929Z,101657.87
2019-05-29T12:21:29.480Z,101649.25
2019-05-29T12:24:00.185Z,101656.09
2019-05-29T12:26:29.792Z,101659.95
2019-05-29T12:29:07.301Z,101659.98
2019-05-29T12:31:31.579Z,101657.39
2019-05-29T12:34:12.844Z,101653.55
2019-05-29T12:36:32.298Z,101657.43
2019-05-29T12:39:02.287Z,101652.12
2019-05-29T12:41:33.059Z,101654.15
2019-05-29T12:44:03.664Z,101661.64
2019-05-29T12:46:34.225Z,101655.66
2019-05-29T12:49:03.853Z,101649.98
2019-05-29T12:51:33.352Z,101654.23
2019-05-29T12:54:04.985Z,101651.59
2019-05-29T12:56:34.056Z,101654.58
2019-05-29T12:59:04.651Z,101655.48
2019-05-29T13:01:34.238Z,101648.13
2019-05-29T13:04:04.723Z,101644.67
2019-05-29T13:06:34.672Z,101649.78
2019-05-29T13:09:06.901Z,101645.06
2019-05-29T13:11:36.414Z,101646.88
2019-05-29T13:14:06.123Z,101601.29
2019-05-29T13:16:35.625Z,101645.58
2019-05-29T13:19:05.560Z,101639.23
2019-05-29T13:21:35.057Z,101641.34
2019-05-29T13:24:09.845Z,101641.22
2019-05-29T13:26:35.971Z,101640.78
2019-05-29T13:29:06.093Z,101640.78
2019-05-29T13:31:35.677Z,101641.98
2019-05-29T13:34:07.193Z,101645.92
2019-05-29T13:36:37.002Z,101642.03
2019-05-29T13:39:07.880Z,101639.52
2019-05-29T13:41:37.368Z,101641.69
2019-05-29T13:44:07.136Z,101638.23
2019-05-29T13:46:37.687Z,101640.63
2019-05-29T13:49:07.363Z,101638.70
2019-05-29T13:51:36.966Z,101635.28
2019-05-29T13:54:14.033Z,101634.96
2019-05-29T13:56:38.709Z,101633.66
2019-05-29T13:59:08.537Z,101635.49
2019-05-29T14:01:39.037Z,101639.73
2019-05-29T14:04:08.769Z,101628.89
2019-05-29T14:06:39.392Z,101629.71
2019-05-29T14:09:10.067Z,101625.58
2019-05-29T14:11:39.806Z,101625.25
2019-05-29T14:14:12.874Z,101629.71
2019-05-29T14:16:40.658Z,101631.78
2019-05-29T14:19:10.167Z,101629.11
2019-05-29T14:21:39.747Z,101631.18
2019-05-29T14:24:26.717Z,101633.67
2019-05-29T14:26:40.494Z,101633.78
2019-05-29T14:29:10.162Z,101632.16
2019-05-29T14:31:39.708Z,101630.67
2019-05-29T14:34:09.598Z,101628.06
2019-05-29T14:36:40.374Z,101627.99
2019-05-29T14:39:10.113Z,101621.16
2019-05-29T14:41:39.596Z,101617.73
2019-05-29T14:44:10.021Z,101623.66
2019-05-29T14:46:39.591Z,101573.38
2019-05-29T14:49:10.475Z,101620.70
2019-05-29T14:51:40.317Z,101621.80
2019-05-29T14:54:11.075Z,101627.48
2019-05-29T14:56:40.735Z,101629.70
2019-05-29T14:59:11.129Z,101627.06
2019-05-29T15:01:41.845Z,101629.76
2019-05-29T15:04:13.182Z,101626.69
2019-05-29T15:06:42.635Z,101634.37
2019-05-29T15:09:13.859Z,101634.42
2019-05-29T15:11:43.882Z,101635.44
2019-05-29T15:14:14.434Z,101632.73
2019-05-29T15:16:44.069Z,101628.23
2019-05-29T15:19:13.548Z,101627.82
2019-05-29T15:21:43.048Z,101623.98
2019-05-29T15:24:13.652Z,101627.44
2019-05-29T15:26:43.259Z,101630.20
2019-05-29T15:29:14.732Z,101630.69
2019-05-29T15:31:43.965Z,101632.55
2019-05-29T15:34:14.454Z,101629.48
2019-05-29T15:36:44.153Z,101633.56
2019-05-29T15:39:14.699Z,101634.81
2019-05-29T15:41:44.529Z,101632.08
2019-05-29T15:44:15.019Z,101634.53
2019-05-29T15:46:44.688Z,101632.53
2019-05-29T15:49:15.252Z,101636.66
2019-05-29T15:51:48.719Z,101631.94
2019-05-29T15:54:18.201Z,101625.63
2019-05-29T15:56:47.705Z,101631.11
2019-05-29T15:59:19.171Z,101620.35
2019-05-29T16:01:48.420Z,101623.09
2019-05-29T16:04:18.167Z,101623.39
2019-05-29T16:06:47.592Z,101624.94
2019-05-29T16:09:18.548Z,101627.00
2019-05-29T16:11:48.302Z,101629.91
2019-05-29T16:14:19.023Z,101623.53
2019-05-29T16:16:48.803Z,101619.95
2019-05-29T16:19:18.424Z,101624.57
2019-05-29T16:21:47.862Z,101627.00
2019-05-29T16:24:17.387Z,101619.80
2019-05-29T16:26:47.023Z,101626.34
2019-05-29T16:29:19.231Z,101622.51
2019-05-29T16:31:47.794Z,101619.37
2019-05-29T16:34:18.954Z,101616.87
2019-05-29T16:36:48.586Z,101616.49
2019-05-29T16:39:19.688Z,101610.53
2019-05-29T16:41:49.588Z,101617.80
2019-05-29T16:44:24.309Z,101617.47
2019-05-29T16:46:50.403Z,101615.69
2019-05-29T16:49:21.279Z,101617.50
2019-05-29T16:51:50.864Z,101617.45
2019-05-29T16:54:21.359Z,101621.83
2019-05-29T16:56:50.888Z,101631.73
2019-05-29T16:59:21.344Z,101624.72
2019-05-29T17:01:50.983Z,101626.07
2019-05-29T17:04:21.521Z,101627.27
2019-05-29T17:06:52.143Z,101619.24
2019-05-29T17:09:22.352Z,101620.49
2019-05-29T17:11:52.010Z,101623.08
2019-05-29T17:14:22.725Z,101627.03
2019-05-29T17:16:52.934Z,101624.92
2019-05-29T17:19:23.095Z,101618.47
2019-05-29T17:21:52.722Z,101613.33
2019-05-29T17:24:23.015Z,101620.32
2019-05-29T17:26:52.709Z,101620.39
2019-05-29T17:29:22.898Z,101606.95
2019-05-29T17:31:52.482Z,101610.88
2019-05-29T17:34:23.100Z,101610.13
2019-05-29T17:36:52.673Z,101614.50
2019-05-29T17:39:23.072Z,101607.19
2019-05-29T17:41:52.794Z,101528.67
2019-05-29T17:44:23.361Z,101602.34
2019-05-29T17:46:53.062Z,101601.44
2019-05-29T17:49:33.569Z,101609.19
2019-05-29T17:51:54.803Z,101606.59
2019-05-29T17:54:24.306Z,101611.27
2019-05-29T17:56:54.210Z,101608.60
2019-05-29T17:59:24.151Z,101612.41
2019-05-29T18:01:53.755Z,101612.27
2019-05-29T18:04:24.830Z,101616.50
2019-05-29T18:06:56.539Z,101621.30
2019-05-29T18:09:27.969Z,101611.83
2019-05-29T18:11:56.853Z,101613.52
2019-05-29T18:14:27.577Z,101616.94
2019-05-29T18:16:57.239Z,101621.30
2019-05-29T18:19:27.987Z,101612.98
2019-05-29T18:21:58.212Z,101616.92
2019-05-29T18:24:28.122Z,101611.40
2019-05-29T18:26:59.137Z,101607.94
2019-05-29T18:29:29.619Z,101610.97
2019-05-29T18:31:59.382Z,101612.75
2019-05-29T18:34:29.557Z,101619.33
2019-05-29T18:36:59.306Z,101617.61
2019-05-29T18:39:28.806Z,101612.48
2019-05-29T18:41:58.385Z,101612.93
2019-05-29T18:44:28.951Z,101620.24
2019-05-29T18:46:58.628Z,101617.20
2019-05-29T18:49:28.653Z,101615.44
2019-05-29T18:52:00.481Z,101614.58
2019-05-29T18:54:29.998Z,101617.64
2019-05-29T18:57:14.742Z,101617.76
2019-05-29T18:59:31.734Z,101619.52
2019-05-29T19:02:01.448Z,101617.90
2019-05-29T19:04:31.936Z,101615.77
2019-05-29T19:07:01.755Z,101621.42
2019-05-29T19:09:31.969Z,101624.05
2019-05-29T19:12:01.636Z,101619.77
2019-05-29T19:14:32.412Z,101615.06
2019-05-29T19:17:02.197Z,101626.34
2019-05-29T19:19:32.569Z,101624.66
2019-05-29T19:22:02.087Z,101624.68
2019-05-29T19:24:32.893Z,101630.73
2019-05-29T19:27:02.525Z,101635.92
2019-05-29T19:29:33.371Z,101632.52
2019-05-29T19:32:02.894Z,101639.41
2019-05-29T19:34:33.626Z,101638.52
2019-05-29T19:37:03.166Z,101641.13
2019-05-29T19:39:34.091Z,101646.75
2019-05-29T19:42:03.887Z,101651.48
2019-05-29T19:44:34.564Z,101581.21
2019-05-29T19:47:04.256Z,101654.51
2019-05-29T19:49:35.206Z,101654.05
2019-05-29T19:52:04.974Z,101655.81
2019-05-29T19:54:35.612Z,101663.16
2019-05-29T19:57:05.461Z,101665.75
2019-05-29T19:59:36.170Z,101665.73
2019-05-29T20:02:05.838Z,101660.58
2019-05-29T20:04:35.350Z,101659.23
2019-05-29T20:07:04.985Z,101658.83
2019-05-29T20:09:35.422Z,101664.87
2019-05-29T20:12:06.028Z,101660.55
2019-05-29T20:14:35.876Z,101661.40
2019-05-29T20:17:05.404Z,101670.03
2019-05-29T20:19:38.834Z,101667.44
2019-05-29T20:22:06.338Z,101660.55
2019-05-29T20:24:36.957Z,101665.72
2019-05-29T20:27:07.386Z,101672.20
2019-05-29T20:29:36.926Z,101671.34
2019-05-29T20:32:06.389Z,101675.21
2019-05-29T20:34:36.890Z,101677.78
2019-05-29T20:37:06.495Z,101669.15
2019-05-29T20:39:36.317Z,101672.17
2019-05-29T20:42:05.863Z,101679.03
2019-05-29T20:44:36.669Z,101682.48
2019-05-29T20:47:06.300Z,101685.04
2019-05-29T20:49:38.005Z,101676.78
2019-05-29T20:52:07.565Z,101678.04
2019-05-29T20:54:37.649Z,101677.55
2019-05-29T20:57:11.615Z,101676.25
2019-05-29T20:59:42.173Z,101604.11
2019-05-29T21:02:12.091Z,101680.08
2019-05-29T21:04:42.819Z,101677.88
2019-05-29T21:07:12.334Z,101686.46
2019-05-29T21:09:43.190Z,101682.99
2019-05-29T21:12:12.974Z,101689.00
2019-05-29T21:14:43.429Z,101685.91
2019-05-29T21:17:13.714Z,101679.38
2019-05-29T21:19:44.540Z,101684.47
2019-05-29T21:22:14.186Z,101672.75
2019-05-29T21:24:49.318Z,101679.59
2019-05-29T21:27:14.941Z,101679.98
2019-05-29T21:29:45.533Z,101678.74
2019-05-29T21:32:18.315Z,101676.58
2019-05-29T21:34:47.875Z,101678.70
2019-05-29T21:37:17.566Z,101674.41
2019-05-29T21:39:47.272Z,101669.60
2019-05-29T21:42:16.791Z,101669.09
2019-05-29T21:44:47.140Z,101670.71
2019-05-29T21:47:16.664Z,101682.55
2019-05-29T21:49:47.417Z,101680.30
2019-05-29T21:52:17.114Z,101680.56
2019-05-29T21:54:47.646Z,101679.30
2019-05-29T21:57:17.213Z,101675.34
2019-05-29T21:59:47.949Z,101674.89
2019-05-29T22:02:17.612Z,101674.79
2019-05-29T22:04:48.550Z,101672.98
2019-05-29T22:07:18.273Z,101683.77
2019-05-29T22:09:48.475Z,101671.61
2019-05-29T22:12:18.069Z,101676.00
2019-05-29T22:14:47.577Z,101681.45
2019-05-29T22:17:17.086Z,101669.86
2019-05-29T22:19:46.730Z,101669.24
2019-05-29T22:22:16.270Z,101669.12
2019-05-29T22:24:45.819Z,101667.20
2019-05-29T22:27:15.323Z,101656.75
2019-05-29T22:29:44.845Z,101656.42
2019-05-29T22:32:14.320Z,101656.32
2019-05-29T22:34:43.840Z,101659.27
2019-05-29T22:37:13.413Z,101663.20
2019-05-29T22:39:42.934Z,101659.98
2019-05-29T22:42:12.417Z,101654.48
2019-05-29T22:44:41.910Z,101651.36
2019-05-29T22:47:11.434Z,101657.74
2019-05-29T22:49:40.947Z,101650.08
2019-05-29T22:52:10.427Z,101645.77
2019-05-29T22:54:39.917Z,101647.95
2019-05-29T22:57:09.426Z,101647.84
2019-05-29T22:59:38.919Z,101641.52
2019-05-29T23:02:08.429Z,101641.45
2019-05-29T23:04:37.948Z,101640.11
2019-05-29T23:07:07.455Z,101643.06
2019-05-29T23:09:37.928Z,101641.69
2019-05-29T23:12:07.423Z,101637.92
2019-05-29T23:14:36.906Z,101638.34
2019-05-29T23:17:06.435Z,101635.41
2019-05-29T23:19:35.950Z,101634.64
2019-05-29T23:22:05.474Z,101638.98
2019-05-29T23:24:34.974Z,101636.13
2019-05-29T23:27:04.579Z,101632.74
2019-05-29T23:29:47.938Z,101629.17
2019-05-29T23:32:05.359Z,101623.48
2019-05-29T23:34:34.875Z,101625.28
2019-05-29T23:37:04.364Z,101617.92
2019-05-29T23:39:34.466Z,101619.95
2019-05-29T23:42:03.967Z,101613.94
2019-05-29T23:44:33.483Z,101606.56
2019-05-29T23:47:04.159Z,101611.58
2019-05-29T23:49:33.801Z,101601.52
2019-05-29T23:52:04.916Z,101602.72
2019-05-29T23:54:34.515Z,101602.78
2019-05-29T23:57:04.257Z,101600.72
2019-05-29T23:59:33.732Z,101595.58
